sensor_id;sensor_type;location;lat;lon;timestamp;temperature;humidity
32394;DHT22;18853;45.426;9.206;2023-04-03T00:01:18;20.10;41.50
32394;DHT22;18853;45.426;9.206;2023-04-03T00:03:44;20.10;41.40
32394;DHT22;18853;45.426;9.206;2023-04-03T00:06:11;20.00;41.40
32394;DHT22;18853;45.426;9.206;2023-04-03T00:08:38;20.00;41.60
32394;DHT22;18853;45.426;9.206;2023-04-03T00:11:05;20.00;41.70
32394;DHT22;18853;45.426;9.206;2023-04-03T00:13:33;20.00;41.90
32394;DHT22;18853;45.426;9.206;2023-04-03T00:15:59;19.90;42.00
32394;DHT22;18853;45.426;9.206;2023-04-03T00:18:25;19.90;42.00
32394;DHT22;18853;45.426;9.206;2023-04-03T00:20:51;19.90;42.00
32394;DHT22;18853;45.426;9.206;2023-04-03T00:23:16;19.90;42.00
32394;DHT22;18853;45.426;9.206;2023-04-03T00:25:42;19.90;42.10
32394;DHT22;18853;45.426;9.206;2023-04-03T00:28:08;19.80;42.10
32394;DHT22;18853;45.426;9.206;2023-04-03T00:30:34;19.80;42.20
32394;DHT22;18853;45.426;9.206;2023-04-03T00:33:00;19.80;42.40
32394;DHT22;18853;45.426;9.206;2023-04-03T00:35:26;19.70;42.40
32394;DHT22;18853;45.426;9.206;2023-04-03T00:37:53;19.70;42.40
32394;DHT22;18853;45.426;9.206;2023-04-03T00:40:20;19.70;42.40
32394;DHT22;18853;45.426;9.206;2023-04-03T00:42:47;19.60;42.40
32394;DHT22;18853;45.426;9.206;2023-04-03T00:45:36;19.60;42.60
32394;DHT22;18853;45.426;9.206;2023-04-03T00:48:05;19.60;43.40
32394;DHT22;18853;45.426;9.206;2023-04-03T00:50:34;19.50;42.70
32394;DHT22;18853;45.426;9.206;2023-04-03T00:53:00;19.50;42.70
32394;DHT22;18853;45.426;9.206;2023-04-03T00:55:27;19.50;42.70
32394;DHT22;18853;45.426;9.206;2023-04-03T00:57:53;19.40;42.70
32394;DHT22;18853;45.426;9.206;2023-04-03T01:00:21;19.40;42.90
32394;DHT22;18853;45.426;9.206;2023-04-03T01:02:49;19.30;43.00
32394;DHT22;18853;45.426;9.206;2023-04-03T01:05:16;19.30;43.20
32394;DHT22;18853;45.426;9.206;2023-04-03T01:07:42;19.30;43.60
32394;DHT22;18853;45.426;9.206;2023-04-03T01:10:12;19.20;43.90
32394;DHT22;18853;45.426;9.206;2023-04-03T01:12:41;19.20;44.30
32394;DHT22;18853;45.426;9.206;2023-04-03T01:17:42;19.10;44.30
32394;DHT22;18853;45.426;9.206;2023-04-03T01:22:53;19.00;44.20
32394;DHT22;18853;45.426;9.206;2023-04-03T01:25:22;19.00;44.20
32394;DHT22;18853;45.426;9.206;2023-04-03T01:27:47;19.00;44.20
32394;DHT22;18853;45.426;9.206;2023-04-03T01:30:14;19.00;44.10
32394;DHT22;18853;45.426;9.206;2023-04-03T01:32:42;19.00;43.90
32394;DHT22;18853;45.426;9.206;2023-04-03T01:35:09;19.00;43.80
32394;DHT22;18853;45.426;9.206;2023-04-03T01:37:35;19.00;43.70
32394;DHT22;18853;45.426;9.206;2023-04-03T01:40:01;19.00;43.80
32394;DHT22;18853;45.426;9.206;2023-04-03T01:42:26;19.00;43.70
32394;DHT22;18853;45.426;9.206;2023-04-03T01:44:52;19.00;43.60
32394;DHT22;18853;45.426;9.206;2023-04-03T01:47:18;19.00;43.50
32394;DHT22;18853;45.426;9.206;2023-04-03T01:49:43;19.00;43.30
32394;DHT22;18853;45.426;9.206;2023-04-03T01:52:09;19.00;43.20
32394;DHT22;18853;45.426;9.206;2023-04-03T01:54:35;19.00;43.20
32394;DHT22;18853;45.426;9.206;2023-04-03T01:57:01;19.00;43.20
32394;DHT22;18853;45.426;9.206;2023-04-03T01:59:26;18.90;42.80
32394;DHT22;18853;45.426;9.206;2023-04-03T02:01:53;18.90;42.50
32394;DHT22;18853;45.426;9.206;2023-04-03T02:04:19;18.80;42.60
32394;DHT22;18853;45.426;9.206;2023-04-03T02:06:44;18.80;42.90
32394;DHT22;18853;45.426;9.206;2023-04-03T02:09:10;18.70;43.00
32394;DHT22;18853;45.426;9.206;2023-04-03T02:11:36;18.70;43.30
32394;DHT22;18853;45.426;9.206;2023-04-03T02:14:02;18.60;43.50
32394;DHT22;18853;45.426;9.206;2023-04-03T02:16:28;18.60;43.70
32394;DHT22;18853;45.426;9.206;2023-04-03T02:18:54;18.50;43.90
32394;DHT22;18853;45.426;9.206;2023-04-03T02:21:20;18.50;44.10
32394;DHT22;18853;45.426;9.206;2023-04-03T02:23:45;18.50;44.10
32394;DHT22;18853;45.426;9.206;2023-04-03T02:26:14;18.40;44.10
32394;DHT22;18853;45.426;9.206;2023-04-03T02:28:40;18.40;44.20
32394;DHT22;18853;45.426;9.206;2023-04-03T02:31:09;18.30;44.20
32394;DHT22;18853;45.426;9.206;2023-04-03T02:33:36;18.40;44.30
32394;DHT22;18853;45.426;9.206;2023-04-03T02:36:04;18.40;44.50
32394;DHT22;18853;45.426;9.206;2023-04-03T02:38:30;18.40;44.50
32394;DHT22;18853;45.426;9.206;2023-04-03T02:41:07;18.30;44.50
32394;DHT22;18853;45.426;9.206;2023-04-03T02:43:34;18.40;44.70
32394;DHT22;18853;45.426;9.206;2023-04-03T02:46:00;18.30;44.50
32394;DHT22;18853;45.426;9.206;2023-04-03T02:48:26;18.30;44.40
32394;DHT22;18853;45.426;9.206;2023-04-03T02:50:52;18.30;44.50
32394;DHT22;18853;45.426;9.206;2023-04-03T02:53:18;18.30;44.60
32394;DHT22;18853;45.426;9.206;2023-04-03T02:55:44;18.30;44.60
32394;DHT22;18853;45.426;9.206;2023-04-03T02:58:10;18.30;44.60
32394;DHT22;18853;45.426;9.206;2023-04-03T03:00:36;18.20;44.60
32394;DHT22;18853;45.426;9.206;2023-04-03T03:03:02;18.20;44.50
32394;DHT22;18853;45.426;9.206;2023-04-03T03:05:28;18.20;44.50
32394;DHT22;18853;45.426;9.206;2023-04-03T03:07:54;18.10;44.60
32394;DHT22;18853;45.426;9.206;2023-04-03T03:10:20;18.10;44.60
32394;DHT22;18853;45.426;9.206;2023-04-03T03:12:45;18.10;44.60
32394;DHT22;18853;45.426;9.206;2023-04-03T03:15:11;18.10;44.70
32394;DHT22;18853;45.426;9.206;2023-04-03T03:17:37;18.10;44.70
32394;DHT22;18853;45.426;9.206;2023-04-03T03:20:04;18.00;44.70
32394;DHT22;18853;45.426;9.206;2023-04-03T03:22:30;18.00;44.70
32394;DHT22;18853;45.426;9.206;2023-04-03T03:24:56;18.00;45.00
32394;DHT22;18853;45.426;9.206;2023-04-03T03:27:22;17.90;45.10
32394;DHT22;18853;45.426;9.206;2023-04-03T03:29:47;17.90;45.20
32394;DHT22;18853;45.426;9.206;2023-04-03T03:32:13;17.80;45.30
32394;DHT22;18853;45.426;9.206;2023-04-03T03:34:39;17.80;45.30
32394;DHT22;18853;45.426;9.206;2023-04-03T03:37:04;17.80;45.50
32394;DHT22;18853;45.426;9.206;2023-04-03T03:39:30;17.70;45.60
32394;DHT22;18853;45.426;9.206;2023-04-03T03:41:56;17.70;45.70
32394;DHT22;18853;45.426;9.206;2023-04-03T03:44:22;17.70;45.70
32394;DHT22;18853;45.426;9.206;2023-04-03T03:46:47;17.70;46.20
32394;DHT22;18853;45.426;9.206;2023-04-03T03:49:13;17.70;46.20
32394;DHT22;18853;45.426;9.206;2023-04-03T03:51:39;17.60;45.50
32394;DHT22;18853;45.426;9.206;2023-04-03T03:54:06;17.60;45.60
32394;DHT22;18853;45.426;9.206;2023-04-03T03:56:32;17.60;45.60
32394;DHT22;18853;45.426;9.206;2023-04-03T03:58:58;17.50;45.50
32394;DHT22;18853;45.426;9.206;2023-04-03T04:01:24;17.50;45.50
32394;DHT22;18853;45.426;9.206;2023-04-03T04:03:50;17.50;45.50
32394;DHT22;18853;45.426;9.206;2023-04-03T04:06:16;17.50;45.40
32394;DHT22;18853;45.426;9.206;2023-04-03T04:08:42;17.60;45.20
32394;DHT22;18853;45.426;9.206;2023-04-03T04:11:08;17.60;45.40
32394;DHT22;18853;45.426;9.206;2023-04-03T04:13:34;17.60;45.60
32394;DHT22;18853;45.426;9.206;2023-04-03T04:16:00;17.60;45.60
32394;DHT22;18853;45.426;9.206;2023-04-03T04:18:26;17.50;45.70
32394;DHT22;18853;45.426;9.206;2023-04-03T04:20:53;17.50;45.80
32394;DHT22;18853;45.426;9.206;2023-04-03T04:23:19;17.40;46.10
32394;DHT22;18853;45.426;9.206;2023-04-03T04:25:45;17.40;46.00
32394;DHT22;18853;45.426;9.206;2023-04-03T04:28:12;17.40;46.80
32394;DHT22;18853;45.426;9.206;2023-04-03T04:30:38;17.40;46.00
32394;DHT22;18853;45.426;9.206;2023-04-03T04:33:03;17.40;46.00
32394;DHT22;18853;45.426;9.206;2023-04-03T04:35:30;17.40;46.00
32394;DHT22;18853;45.426;9.206;2023-04-03T04:37:55;17.40;46.40
32394;DHT22;18853;45.426;9.206;2023-04-03T04:40:21;17.30;46.60
32394;DHT22;18853;45.426;9.206;2023-04-03T04:42:47;17.30;46.50
32394;DHT22;18853;45.426;9.206;2023-04-03T04:45:13;17.20;46.60
32394;DHT22;18853;45.426;9.206;2023-04-03T04:47:40;17.20;46.70
32394;DHT22;18853;45.426;9.206;2023-04-03T04:50:06;17.20;46.90
32394;DHT22;18853;45.426;9.206;2023-04-03T04:52:32;17.10;46.80
32394;DHT22;18853;45.426;9.206;2023-04-03T04:54:58;17.10;46.90
32394;DHT22;18853;45.426;9.206;2023-04-03T04:57:23;17.10;47.00
32394;DHT22;18853;45.426;9.206;2023-04-03T04:59:49;17.10;47.10
32394;DHT22;18853;45.426;9.206;2023-04-03T05:02:15;17.00;47.10
32394;DHT22;18853;45.426;9.206;2023-04-03T05:04:41;17.00;47.10
32394;DHT22;18853;45.426;9.206;2023-04-03T05:07:07;17.00;47.20
32394;DHT22;18853;45.426;9.206;2023-04-03T05:09:32;17.00;47.30
32394;DHT22;18853;45.426;9.206;2023-04-03T05:11:58;17.00;47.30
32394;DHT22;18853;45.426;9.206;2023-04-03T05:14:24;16.90;47.20
32394;DHT22;18853;45.426;9.206;2023-04-03T05:16:49;16.90;47.20
32394;DHT22;18853;45.426;9.206;2023-04-03T05:19:20;16.90;47.30
32394;DHT22;18853;45.426;9.206;2023-04-03T05:21:46;16.90;47.30
32394;DHT22;18853;45.426;9.206;2023-04-03T05:24:12;16.80;47.30
32394;DHT22;18853;45.426;9.206;2023-04-03T05:26:38;16.90;47.40
32394;DHT22;18853;45.426;9.206;2023-04-03T05:29:04;16.80;47.50
32394;DHT22;18853;45.426;9.206;2023-04-03T05:31:29;16.80;47.50
32394;DHT22;18853;45.426;9.206;2023-04-03T05:33:56;16.90;47.50
32394;DHT22;18853;45.426;9.206;2023-04-03T05:36:22;16.80;47.50
32394;DHT22;18853;45.426;9.206;2023-04-03T05:38:48;16.80;47.70
32394;DHT22;18853;45.426;9.206;2023-04-03T05:41:15;16.80;47.80
32394;DHT22;18853;45.426;9.206;2023-04-03T05:43:41;16.80;47.90
32394;DHT22;18853;45.426;9.206;2023-04-03T05:46:14;16.80;47.90
32394;DHT22;18853;45.426;9.206;2023-04-03T05:48:40;16.80;48.00
32394;DHT22;18853;45.426;9.206;2023-04-03T05:51:07;16.80;48.00
32394;DHT22;18853;45.426;9.206;2023-04-03T05:53:39;16.80;48.00
32394;DHT22;18853;45.426;9.206;2023-04-03T05:56:05;16.80;48.00
32394;DHT22;18853;45.426;9.206;2023-04-03T05:58:30;16.80;48.00
32394;DHT22;18853;45.426;9.206;2023-04-03T06:00:56;16.90;48.10
32394;DHT22;18853;45.426;9.206;2023-04-03T06:03:22;16.80;48.00
32394;DHT22;18853;45.426;9.206;2023-04-03T06:05:48;16.80;48.10
32394;DHT22;18853;45.426;9.206;2023-04-03T06:08:14;16.80;48.30
32394;DHT22;18853;45.426;9.206;2023-04-03T06:10:40;16.80;48.60
32394;DHT22;18853;45.426;9.206;2023-04-03T06:13:06;16.80;49.00
32394;DHT22;18853;45.426;9.206;2023-04-03T06:15:32;16.70;49.20
32394;DHT22;18853;45.426;9.206;2023-04-03T06:17:59;16.80;49.10
32394;DHT22;18853;45.426;9.206;2023-04-03T06:20:25;16.80;49.20
32394;DHT22;18853;45.426;9.206;2023-04-03T06:22:50;16.70;49.20
32394;DHT22;18853;45.426;9.206;2023-04-03T06:25:17;16.80;49.20
32394;DHT22;18853;45.426;9.206;2023-04-03T06:27:45;16.80;49.30
32394;DHT22;18853;45.426;9.206;2023-04-03T06:30:11;16.80;49.40
32394;DHT22;18853;45.426;9.206;2023-04-03T06:32:37;16.80;49.30
32394;DHT22;18853;45.426;9.206;2023-04-03T06:35:04;16.90;49.40
32394;DHT22;18853;45.426;9.206;2023-04-03T06:37:30;16.90;49.20
32394;DHT22;18853;45.426;9.206;2023-04-03T06:39:56;16.90;49.00
32394;DHT22;18853;45.426;9.206;2023-04-03T06:42:22;17.00;48.70
32394;DHT22;18853;45.426;9.206;2023-04-03T06:44:48;17.00;48.60
32394;DHT22;18853;45.426;9.206;2023-04-03T06:47:15;17.10;48.60
32394;DHT22;18853;45.426;9.206;2023-04-03T06:49:41;17.10;48.00
32394;DHT22;18853;45.426;9.206;2023-04-03T06:52:07;17.20;48.20
32394;DHT22;18853;45.426;9.206;2023-04-03T06:54:33;17.20;46.70
32394;DHT22;18853;45.426;9.206;2023-04-03T06:56:59;17.20;46.30
32394;DHT22;18853;45.426;9.206;2023-04-03T06:59:25;17.30;46.00
32394;DHT22;18853;45.426;9.206;2023-04-03T07:01:51;17.30;45.10
32394;DHT22;18853;45.426;9.206;2023-04-03T07:04:17;17.30;44.90
32394;DHT22;18853;45.426;9.206;2023-04-03T07:06:43;17.40;44.70
32394;DHT22;18853;45.426;9.206;2023-04-03T07:09:09;17.50;45.10
32394;DHT22;18853;45.426;9.206;2023-04-03T07:11:36;17.50;44.90
32394;DHT22;18853;45.426;9.206;2023-04-03T07:14:02;17.50;44.90
32394;DHT22;18853;45.426;9.206;2023-04-03T07:16:28;17.50;44.90
32394;DHT22;18853;45.426;9.206;2023-04-03T07:18:56;17.50;45.00
32394;DHT22;18853;45.426;9.206;2023-04-03T07:21:22;17.60;45.30
32394;DHT22;18853;45.426;9.206;2023-04-03T07:23:48;17.60;45.30
32394;DHT22;18853;45.426;9.206;2023-04-03T07:26:14;17.70;45.50
32394;DHT22;18853;45.426;9.206;2023-04-03T07:28:40;17.70;44.90
32394;DHT22;18853;45.426;9.206;2023-04-03T07:31:08;17.70;44.60
32394;DHT22;18853;45.426;9.206;2023-04-03T07:33:37;17.70;44.80
32394;DHT22;18853;45.426;9.206;2023-04-03T07:36:04;17.70;44.90
32394;DHT22;18853;45.426;9.206;2023-04-03T07:38:32;17.80;45.00
32394;DHT22;18853;45.426;9.206;2023-04-03T07:40:58;17.90;44.80
32394;DHT22;18853;45.426;9.206;2023-04-03T07:43:24;17.90;44.60
32394;DHT22;18853;45.426;9.206;2023-04-03T07:45:52;17.90;44.80
32394;DHT22;18853;45.426;9.206;2023-04-03T07:48:23;18.00;44.20
32394;DHT22;18853;45.426;9.206;2023-04-03T07:50:49;18.00;44.00
32394;DHT22;18853;45.426;9.206;2023-04-03T07:53:15;18.10;43.90
32394;DHT22;18853;45.426;9.206;2023-04-03T07:55:41;18.10;44.00
32394;DHT22;18853;45.426;9.206;2023-04-03T07:58:14;18.10;44.20
32394;DHT22;18853;45.426;9.206;2023-04-03T08:00:40;18.20;44.20
32394;DHT22;18853;45.426;9.206;2023-04-03T08:03:07;18.20;44.10
32394;DHT22;18853;45.426;9.206;2023-04-03T08:05:39;18.30;44.20
32394;DHT22;18853;45.426;9.206;2023-04-03T08:08:06;18.30;44.20
32394;DHT22;18853;45.426;9.206;2023-04-03T08:10:32;18.40;44.10
32394;DHT22;18853;45.426;9.206;2023-04-03T08:12:58;18.40;44.30
32394;DHT22;18853;45.426;9.206;2023-04-03T08:15:24;18.40;44.40
32394;DHT22;18853;45.426;9.206;2023-04-03T08:17:50;18.50;44.50
32394;DHT22;18853;45.426;9.206;2023-04-03T08:20:16;18.40;44.50
32394;DHT22;18853;45.426;9.206;2023-04-03T08:22:42;18.50;44.40
32394;DHT22;18853;45.426;9.206;2023-04-03T08:25:08;18.60;44.30
32394;DHT22;18853;45.426;9.206;2023-04-03T08:27:34;18.60;44.40
32394;DHT22;18853;45.426;9.206;2023-04-03T08:30:00;18.60;44.40
32394;DHT22;18853;45.426;9.206;2023-04-03T08:32:27;18.70;44.50
32394;DHT22;18853;45.426;9.206;2023-04-03T08:34:53;18.80;44.40
32394;DHT22;18853;45.426;9.206;2023-04-03T08:37:19;18.80;44.40
32394;DHT22;18853;45.426;9.206;2023-04-03T08:39:45;18.90;44.50
32394;DHT22;18853;45.426;9.206;2023-04-03T08:45:09;18.90;44.50
32394;DHT22;18853;45.426;9.206;2023-04-03T08:50:29;18.70;45.00
32394;DHT22;18853;45.426;9.206;2023-04-03T08:52:59;18.60;45.30
32394;DHT22;18853;45.426;9.206;2023-04-03T08:55:29;18.70;45.50
32394;DHT22;18853;45.426;9.206;2023-04-03T08:58:04;18.80;45.40
32394;DHT22;18853;45.426;9.206;2023-04-03T09:01:01;18.90;45.30
32394;DHT22;18853;45.426;9.206;2023-04-03T09:03:31;18.80;45.30
32394;DHT22;18853;45.426;9.206;2023-04-03T09:06:26;18.70;45.40
32394;DHT22;18853;45.426;9.206;2023-04-03T09:09:14;18.70;45.40
32394;DHT22;18853;45.426;9.206;2023-04-03T09:19:58;19.00;45.10
32394;DHT22;18853;45.426;9.206;2023-04-03T09:22:28;19.10;45.20
32394;DHT22;18853;45.426;9.206;2023-04-03T09:25:15;19.10;45.90
32394;DHT22;18853;45.426;9.206;2023-04-03T09:27:43;19.20;45.80
32394;DHT22;18853;45.426;9.206;2023-04-03T09:30:17;19.30;45.70
32394;DHT22;18853;45.426;9.206;2023-04-03T09:32:46;19.30;45.20
32394;DHT22;18853;45.426;9.206;2023-04-03T09:35:25;19.30;45.50
32394;DHT22;18853;45.426;9.206;2023-04-03T09:37:53;19.30;45.60
32394;DHT22;18853;45.426;9.206;2023-04-03T09:42:53;19.50;45.50
32394;DHT22;18853;45.426;9.206;2023-04-03T09:45:39;19.50;45.40
32394;DHT22;18853;45.426;9.206;2023-04-03T09:53:39;19.70;45.30
32394;DHT22;18853;45.426;9.206;2023-04-03T09:56:29;19.80;45.20
32394;DHT22;18853;45.426;9.206;2023-04-03T10:01:38;19.90;44.70
32394;DHT22;18853;45.426;9.206;2023-04-03T10:04:16;20.00;45.00
32394;DHT22;18853;45.426;9.206;2023-04-03T10:06:46;20.00;45.00
32394;DHT22;18853;45.426;9.206;2023-04-03T10:14:32;20.30;44.40
32394;DHT22;18853;45.426;9.206;2023-04-03T10:19:57;20.30;44.20
32394;DHT22;18853;45.426;9.206;2023-04-03T10:25:04;20.20;44.50
32394;DHT22;18853;45.426;9.206;2023-04-03T10:27:51;20.30;44.30
32394;DHT22;18853;45.426;9.206;2023-04-03T10:36:03;20.50;43.40
32394;DHT22;18853;45.426;9.206;2023-04-03T10:44:16;20.40;44.40
32394;DHT22;18853;45.426;9.206;2023-04-03T10:46:44;20.30;44.40
32394;DHT22;18853;45.426;9.206;2023-04-03T10:49:34;20.30;44.00
32394;DHT22;18853;45.426;9.206;2023-04-03T10:52:26;20.30;43.70
32394;DHT22;18853;45.426;9.206;2023-04-03T10:57:50;20.50;43.30
32394;DHT22;18853;45.426;9.206;2023-04-03T11:00:21;20.40;43.50
32394;DHT22;18853;45.426;9.206;2023-04-03T11:03:03;20.40;43.60
32394;DHT22;18853;45.426;9.206;2023-04-03T11:05:36;20.40;43.20
32394;DHT22;18853;45.426;9.206;2023-04-03T11:10:49;20.20;43.60
32394;DHT22;18853;45.426;9.206;2023-04-03T11:13:43;20.20;43.80
32394;DHT22;18853;45.426;9.206;2023-04-03T11:16:17;20.20;44.00
32394;DHT22;18853;45.426;9.206;2023-04-03T11:21:37;20.20;43.80
32394;DHT22;18853;45.426;9.206;2023-04-03T11:24:06;20.30;43.30
32394;DHT22;18853;45.426;9.206;2023-04-03T11:26:40;20.20;43.70
32394;DHT22;18853;45.426;9.206;2023-04-03T11:29:14;20.20;43.80
32394;DHT22;18853;45.426;9.206;2023-04-03T11:32:21;20.30;43.60
32394;DHT22;18853;45.426;9.206;2023-04-03T11:34:49;20.40;43.80
32394;DHT22;18853;45.426;9.206;2023-04-03T11:37:35;20.40;44.30
32394;DHT22;18853;45.426;9.206;2023-04-03T11:40:28;20.60;43.40
32394;DHT22;18853;45.426;9.206;2023-04-03T11:43:15;20.60;42.90
32394;DHT22;18853;45.426;9.206;2023-04-03T11:46:04;20.70;43.30
32394;DHT22;18853;45.426;9.206;2023-04-03T11:51:00;21.00;42.80
32394;DHT22;18853;45.426;9.206;2023-04-03T11:55:54;21.10;42.30
32394;DHT22;18853;45.426;9.206;2023-04-03T11:58:29;21.30;42.20
32394;DHT22;18853;45.426;9.206;2023-04-03T12:01:11;21.20;41.00
32394;DHT22;18853;45.426;9.206;2023-04-03T12:04:05;21.40;40.70
32394;DHT22;18853;45.426;9.206;2023-04-03T12:09:01;21.50;40.30
32394;DHT22;18853;45.426;9.206;2023-04-03T12:11:31;21.50;40.20
32394;DHT22;18853;45.426;9.206;2023-04-03T12:26:44;21.90;39.50
32394;DHT22;18853;45.426;9.206;2023-04-03T12:34:28;21.90;37.40
32394;DHT22;18853;45.426;9.206;2023-04-03T12:37:09;22.00;37.40
32394;DHT22;18853;45.426;9.206;2023-04-03T12:46:00;22.30;36.50
32394;DHT22;18853;45.426;9.206;2023-04-03T12:48:33;22.30;36.80
32394;DHT22;18853;45.426;9.206;2023-04-03T12:51:00;22.30;36.00
32394;DHT22;18853;45.426;9.206;2023-04-03T12:53:34;22.40;36.20
32394;DHT22;18853;45.426;9.206;2023-04-03T12:56:22;22.40;36.10
32394;DHT22;18853;45.426;9.206;2023-04-03T12:58:49;22.50;35.60
32394;DHT22;18853;45.426;9.206;2023-04-03T13:01:17;22.50;36.10
32394;DHT22;18853;45.426;9.206;2023-04-03T13:03:47;22.60;36.70
32394;DHT22;18853;45.426;9.206;2023-04-03T13:06:24;22.70;36.50
32394;DHT22;18853;45.426;9.206;2023-04-03T13:08:57;22.90;36.20
32394;DHT22;18853;45.426;9.206;2023-04-03T13:11:25;22.90;35.70
32394;DHT22;18853;45.426;9.206;2023-04-03T13:14:00;23.00;36.00
32394;DHT22;18853;45.426;9.206;2023-04-03T13:16:26;22.90;34.70
32394;DHT22;18853;45.426;9.206;2023-04-03T13:18:54;22.80;35.30
32394;DHT22;18853;45.426;9.206;2023-04-03T13:21:29;22.90;36.00
32394;DHT22;18853;45.426;9.206;2023-04-03T13:23:58;23.00;35.30
32394;DHT22;18853;45.426;9.206;2023-04-03T13:26:28;23.00;35.10
32394;DHT22;18853;45.426;9.206;2023-04-03T13:28:58;23.00;35.10
32394;DHT22;18853;45.426;9.206;2023-04-03T13:31:30;23.10;35.20
32394;DHT22;18853;45.426;9.206;2023-04-03T13:36:46;23.30;35.20
32394;DHT22;18853;45.426;9.206;2023-04-03T13:39:33;23.50;35.00
32394;DHT22;18853;45.426;9.206;2023-04-03T13:42:01;23.60;34.80
32394;DHT22;18853;45.426;9.206;2023-04-03T13:44:39;23.70;33.50
32394;DHT22;18853;45.426;9.206;2023-04-03T13:47:18;23.80;33.70
32394;DHT22;18853;45.426;9.206;2023-04-03T13:52:53;24.00;32.80
32394;DHT22;18853;45.426;9.206;2023-04-03T13:55:24;24.10;33.80
32394;DHT22;18853;45.426;9.206;2023-04-03T13:58:19;24.30;33.70
32394;DHT22;18853;45.426;9.206;2023-04-03T14:00:50;24.40;33.10
32394;DHT22;18853;45.426;9.206;2023-04-03T14:05:56;24.70;33.20
32394;DHT22;18853;45.426;9.206;2023-04-03T14:08:22;24.70;33.00
32394;DHT22;18853;45.426;9.206;2023-04-03T14:10:49;24.90;33.20
32394;DHT22;18853;45.426;9.206;2023-04-03T14:13:18;25.00;32.70
32394;DHT22;18853;45.426;9.206;2023-04-03T14:15:45;25.20;32.30
32394;DHT22;18853;45.426;9.206;2023-04-03T14:18:15;25.20;31.70
32394;DHT22;18853;45.426;9.206;2023-04-03T14:20:41;25.20;31.20
32394;DHT22;18853;45.426;9.206;2023-04-03T14:23:07;25.20;31.70
32394;DHT22;18853;45.426;9.206;2023-04-03T14:25:33;25.20;31.10
32394;DHT22;18853;45.426;9.206;2023-04-03T14:28:00;25.20;31.00
32394;DHT22;18853;45.426;9.206;2023-04-03T14:30:30;25.10;31.60
32394;DHT22;18853;45.426;9.206;2023-04-03T14:32:57;25.10;32.00
32394;DHT22;18853;45.426;9.206;2023-04-03T14:35:24;25.20;32.20
32394;DHT22;18853;45.426;9.206;2023-04-03T14:37:52;25.40;32.20
32394;DHT22;18853;45.426;9.206;2023-04-03T14:40:24;25.40;32.30
32394;DHT22;18853;45.426;9.206;2023-04-03T14:42:50;25.40;31.40
32394;DHT22;18853;45.426;9.206;2023-04-03T14:45:17;25.30;32.20
32394;DHT22;18853;45.426;9.206;2023-04-03T14:47:52;25.40;32.60
32394;DHT22;18853;45.426;9.206;2023-04-03T14:50:27;25.70;32.00
32394;DHT22;18853;45.426;9.206;2023-04-03T14:52:56;25.70;31.90
32394;DHT22;18853;45.426;9.206;2023-04-03T14:55:24;25.70;31.50
32394;DHT22;18853;45.426;9.206;2023-04-03T14:57:50;25.50;31.70
32394;DHT22;18853;45.426;9.206;2023-04-03T15:00:21;25.30;31.40
32394;DHT22;18853;45.426;9.206;2023-04-03T15:02:47;25.00;31.10
32394;DHT22;18853;45.426;9.206;2023-04-03T15:05:14;24.70;30.90
32394;DHT22;18853;45.426;9.206;2023-04-03T15:07:55;24.30;31.00
32394;DHT22;18853;45.426;9.206;2023-04-03T15:10:25;24.00;31.50
32394;DHT22;18853;45.426;9.206;2023-04-03T15:12:52;23.90;32.20
32394;DHT22;18853;45.426;9.206;2023-04-03T15:15:19;23.80;32.50
32394;DHT22;18853;45.426;9.206;2023-04-03T15:17:46;23.80;32.80
32394;DHT22;18853;45.426;9.206;2023-04-03T15:22:38;23.60;32.30
32394;DHT22;18853;45.426;9.206;2023-04-03T15:25:04;23.50;32.60
32394;DHT22;18853;45.426;9.206;2023-04-03T15:27:30;23.40;33.00
32394;DHT22;18853;45.426;9.206;2023-04-03T15:29:56;23.40;33.30
32394;DHT22;18853;45.426;9.206;2023-04-03T15:32:22;23.30;33.00
32394;DHT22;18853;45.426;9.206;2023-04-03T15:34:47;23.30;33.10
32394;DHT22;18853;45.426;9.206;2023-04-03T15:37:13;23.20;33.00
32394;DHT22;18853;45.426;9.206;2023-04-03T15:39:39;23.10;33.60
32394;DHT22;18853;45.426;9.206;2023-04-03T15:42:04;23.00;33.20
32394;DHT22;18853;45.426;9.206;2023-04-03T15:44:36;23.00;32.90
32394;DHT22;18853;45.426;9.206;2023-04-03T15:47:02;23.00;32.70
32394;DHT22;18853;45.426;9.206;2023-04-03T15:49:28;23.00;32.90
32394;DHT22;18853;45.426;9.206;2023-04-03T15:51:54;22.90;33.20
32394;DHT22;18853;45.426;9.206;2023-04-03T15:54:19;22.90;33.40
32394;DHT22;18853;45.426;9.206;2023-04-03T15:56:45;22.80;32.80
32394;DHT22;18853;45.426;9.206;2023-04-03T15:59:11;22.80;32.90
32394;DHT22;18853;45.426;9.206;2023-04-03T16:01:37;22.80;33.10
32394;DHT22;18853;45.426;9.206;2023-04-03T16:04:05;22.80;33.00
32394;DHT22;18853;45.426;9.206;2023-04-03T16:06:31;22.80;33.20
32394;DHT22;18853;45.426;9.206;2023-04-03T16:08:58;22.80;33.20
32394;DHT22;18853;45.426;9.206;2023-04-03T16:11:26;22.80;32.60
32394;DHT22;18853;45.426;9.206;2023-04-03T16:13:53;22.70;32.70
32394;DHT22;18853;45.426;9.206;2023-04-03T16:16:19;22.90;32.90
32394;DHT22;18853;45.426;9.206;2023-04-03T16:18:45;23.10;32.50
32394;DHT22;18853;45.426;9.206;2023-04-03T16:21:13;23.10;32.20
32394;DHT22;18853;45.426;9.206;2023-04-03T16:23:40;23.00;32.20
32394;DHT22;18853;45.426;9.206;2023-04-03T16:26:06;22.90;32.10
32394;DHT22;18853;45.426;9.206;2023-04-03T16:28:31;22.80;32.30
32394;DHT22;18853;45.426;9.206;2023-04-03T16:30:57;22.70;32.50
32394;DHT22;18853;45.426;9.206;2023-04-03T16:33:24;22.60;32.40
32394;DHT22;18853;45.426;9.206;2023-04-03T16:35:50;22.50;32.50
32394;DHT22;18853;45.426;9.206;2023-04-03T16:38:16;22.50;32.50
32394;DHT22;18853;45.426;9.206;2023-04-03T16:40:44;22.40;32.60
32394;DHT22;18853;45.426;9.206;2023-04-03T16:43:10;22.40;32.60
32394;DHT22;18853;45.426;9.206;2023-04-03T16:45:36;22.30;32.80
32394;DHT22;18853;45.426;9.206;2023-04-03T16:48:02;22.20;32.80
32394;DHT22;18853;45.426;9.206;2023-04-03T16:50:28;22.10;32.80
32394;DHT22;18853;45.426;9.206;2023-04-03T16:52:53;22.10;32.80
32394;DHT22;18853;45.426;9.206;2023-04-03T16:55:19;22.00;32.90
32394;DHT22;18853;45.426;9.206;2023-04-03T16:57:46;22.00;32.80
32394;DHT22;18853;45.426;9.206;2023-04-03T17:00:12;21.90;32.70
32394;DHT22;18853;45.426;9.206;2023-04-03T17:02:39;21.80;32.80
32394;DHT22;18853;45.426;9.206;2023-04-03T17:05:06;21.80;33.00
32394;DHT22;18853;45.426;9.206;2023-04-03T17:07:32;21.80;33.00
32394;DHT22;18853;45.426;9.206;2023-04-03T17:09:57;21.80;33.00
32394;DHT22;18853;45.426;9.206;2023-04-03T17:12:24;21.70;32.90
32394;DHT22;18853;45.426;9.206;2023-04-03T17:14:50;21.80;32.90
32394;DHT22;18853;45.426;9.206;2023-04-03T17:17:20;21.70;32.70
32394;DHT22;18853;45.426;9.206;2023-04-03T17:19:46;21.70;32.70
32394;DHT22;18853;45.426;9.206;2023-04-03T17:22:12;21.70;32.70